sensor_id;sensor_type;location;lat;lon;timestamp;temperature;humidity
3942;DHT22;1985;48.592;8.850;2023-07-29T00:01:34;18.50;99.90
3942;DHT22;1985;48.592;8.850;2023-07-29T00:03:59;18.60;99.90
3942;DHT22;1985;48.592;8.850;2023-07-29T00:06:25;18.60;99.90
3942;DHT22;1985;48.592;8.850;2023-07-29T00:08:51;18.60;99.90
3942;DHT22;1985;48.592;8.850;2023-07-29T00:11:16;18.70;99.90
3942;DHT22;1985;48.592;8.850;2023-07-29T00:13:42;18.70;99.90
3942;DHT22;1985;48.592;8.850;2023-07-29T00:16:07;18.70;99.90
3942;DHT22;1985;48.592;8.850;2023-07-29T00:18:33;18.70;99.90
3942;DHT22;1985;48.592;8.850;2023-07-29T00:20:59;18.80;99.90
3942;DHT22;1985;48.592;8.850;2023-07-29T00:23:24;18.60;99.90
3942;DHT22;1985;48.592;8.850;2023-07-29T00:25:50;18.60;99.90
3942;DHT22;1985;48.592;8.850;2023-07-29T00:28:16;18.70;99.90
3942;DHT22;1985;48.592;8.850;2023-07-29T00:30:41;18.50;99.90
3942;DHT22;1985;48.592;8.850;2023-07-29T00:33:07;18.50;99.90
3942;DHT22;1985;48.592;8.850;2023-07-29T00:35:33;18.60;99.90
3942;DHT22;1985;48.592;8.850;2023-07-29T00:37:59;18.40;99.90
3942;DHT22;1985;48.592;8.850;2023-07-29T00:40:27;18.30;99.90
3942;DHT22;1985;48.592;8.850;2023-07-29T00:42:53;18.30;99.90
3942;DHT22;1985;48.592;8.850;2023-07-29T00:45:19;18.40;99.90
3942;DHT22;1985;48.592;8.850;2023-07-29T00:47:45;18.40;99.90
3942;DHT22;1985;48.592;8.850;2023-07-29T00:50:12;18.40;99.90
3942;DHT22;1985;48.592;8.850;2023-07-29T00:52:38;18.50;99.90
3942;DHT22;1985;48.592;8.850;2023-07-29T00:55:05;18.50;99.90
3942;DHT22;1985;48.592;8.850;2023-07-29T00:57:31;18.60;99.90
3942;DHT22;1985;48.592;8.850;2023-07-29T00:59:57;18.60;99.90
3942;DHT22;1985;48.592;8.850;2023-07-29T01:02:23;18.50;99.90
3942;DHT22;1985;48.592;8.850;2023-07-29T01:04:57;18.40;99.90
3942;DHT22;1985;48.592;8.850;2023-07-29T01:10:03;18.30;99.90
3942;DHT22;1985;48.592;8.850;2023-07-29T01:18:06;18.20;99.90
3942;DHT22;1985;48.592;8.850;2023-07-29T01:20:37;18.30;99.90
3942;DHT22;1985;48.592;8.850;2023-07-29T01:23:04;18.30;99.90
3942;DHT22;1985;48.592;8.850;2023-07-29T01:25:29;18.40;99.90
3942;DHT22;1985;48.592;8.850;2023-07-29T01:27:55;18.40;99.90
3942;DHT22;1985;48.592;8.850;2023-07-29T01:30:24;18.40;99.90
3942;DHT22;1985;48.592;8.850;2023-07-29T01:33:33;18.40;99.90
3942;DHT22;1985;48.592;8.850;2023-07-29T01:35:57;18.40;99.90
3942;DHT22;1985;48.592;8.850;2023-07-29T01:38:52;18.30;99.90
3942;DHT22;1985;48.592;8.850;2023-07-29T01:41:20;18.20;99.90
3942;DHT22;1985;48.592;8.850;2023-07-29T01:43:47;18.00;99.90
3942;DHT22;1985;48.592;8.850;2023-07-29T01:46:15;17.80;99.90
3942;DHT22;1985;48.592;8.850;2023-07-29T01:48:42;17.80;99.90
3942;DHT22;1985;48.592;8.850;2023-07-29T01:51:08;17.90;99.90
3942;DHT22;1985;48.592;8.850;2023-07-29T01:53:34;17.80;99.90
3942;DHT22;1985;48.592;8.850;2023-07-29T01:56:00;17.70;99.90
3942;DHT22;1985;48.592;8.850;2023-07-29T01:58:27;17.70;99.90
3942;DHT22;1985;48.592;8.850;2023-07-29T02:00:52;17.80;99.90
3942;DHT22;1985;48.592;8.850;2023-07-29T02:03:18;17.80;99.90
3942;DHT22;1985;48.592;8.850;2023-07-29T02:05:43;17.80;99.90
3942;DHT22;1985;48.592;8.850;2023-07-29T02:08:10;17.70;99.90
3942;DHT22;1985;48.592;8.850;2023-07-29T02:10:35;17.70;99.90
3942;DHT22;1985;48.592;8.850;2023-07-29T02:13:01;17.50;99.90
3942;DHT22;1985;48.592;8.850;2023-07-29T02:15:27;17.60;99.90
3942;DHT22;1985;48.592;8.850;2023-07-29T02:17:53;17.50;99.90
3942;DHT22;1985;48.592;8.850;2023-07-29T02:20:19;17.60;99.90
3942;DHT22;1985;48.592;8.850;2023-07-29T02:22:45;17.70;99.90
3942;DHT22;1985;48.592;8.850;2023-07-29T02:25:10;17.80;99.90
3942;DHT22;1985;48.592;8.850;2023-07-29T02:27:36;17.70;99.90
3942;DHT22;1985;48.592;8.850;2023-07-29T02:30:02;17.30;99.90
3942;DHT22;1985;48.592;8.850;2023-07-29T02:32:28;17.20;99.90
3942;DHT22;1985;48.592;8.850;2023-07-29T02:34:54;17.10;99.90
3942;DHT22;1985;48.592;8.850;2023-07-29T02:37:20;17.30;99.90
3942;DHT22;1985;48.592;8.850;2023-07-29T02:39:45;17.50;99.90
3942;DHT22;1985;48.592;8.850;2023-07-29T02:42:11;17.70;99.90
3942;DHT22;1985;48.592;8.850;2023-07-29T02:44:37;17.80;99.90
3942;DHT22;1985;48.592;8.850;2023-07-29T02:47:03;17.90;99.90
3942;DHT22;1985;48.592;8.850;2023-07-29T02:49:28;17.90;99.90
3942;DHT22;1985;48.592;8.850;2023-07-29T02:51:54;17.90;99.90
3942;DHT22;1985;48.592;8.850;2023-07-29T02:54:20;17.90;99.90
3942;DHT22;1985;48.592;8.850;2023-07-29T02:56:45;17.90;99.90
3942;DHT22;1985;48.592;8.850;2023-07-29T02:59:11;17.90;99.90
3942;DHT22;1985;48.592;8.850;2023-07-29T03:01:37;18.00;99.90
3942;DHT22;1985;48.592;8.850;2023-07-29T03:04:02;17.90;99.90
3942;DHT22;1985;48.592;8.850;2023-07-29T03:06:28;17.90;99.90
3942;DHT22;1985;48.592;8.850;2023-07-29T03:08:54;18.00;99.90
3942;DHT22;1985;48.592;8.850;2023-07-29T03:11:19;18.10;99.90
3942;DHT22;1985;48.592;8.850;2023-07-29T03:13:45;18.10;99.90
3942;DHT22;1985;48.592;8.850;2023-07-29T03:16:13;18.10;99.90
3942;DHT22;1985;48.592;8.850;2023-07-29T03:18:40;18.00;99.90
3942;DHT22;1985;48.592;8.850;2023-07-29T03:21:07;17.70;99.90
3942;DHT22;1985;48.592;8.850;2023-07-29T03:23:33;17.80;99.90
3942;DHT22;1985;48.592;8.850;2023-07-29T03:26:00;17.50;99.90
3942;DHT22;1985;48.592;8.850;2023-07-29T03:28:28;17.50;99.90
3942;DHT22;1985;48.592;8.850;2023-07-29T03:30:55;17.60;99.90
3942;DHT22;1985;48.592;8.850;2023-07-29T03:33:21;17.60;99.90
3942;DHT22;1985;48.592;8.850;2023-07-29T03:35:46;17.70;99.90
3942;DHT22;1985;48.592;8.850;2023-07-29T03:38:12;17.60;99.90
3942;DHT22;1985;48.592;8.850;2023-07-29T03:40:38;17.50;99.90
3942;DHT22;1985;48.592;8.850;2023-07-29T03:43:04;17.60;99.90
3942;DHT22;1985;48.592;8.850;2023-07-29T03:45:30;17.40;99.90
3942;DHT22;1985;48.592;8.850;2023-07-29T03:47:56;17.20;99.90
3942;DHT22;1985;48.592;8.850;2023-07-29T03:50:21;17.30;99.90
3942;DHT22;1985;48.592;8.850;2023-07-29T03:52:47;17.30;99.90
3942;DHT22;1985;48.592;8.850;2023-07-29T03:55:13;17.40;99.90
3942;DHT22;1985;48.592;8.850;2023-07-29T03:57:38;17.40;99.90
3942;DHT22;1985;48.592;8.850;2023-07-29T04:00:05;17.50;99.90
3942;DHT22;1985;48.592;8.850;2023-07-29T04:02:31;17.60;99.90
3942;DHT22;1985;48.592;8.850;2023-07-29T04:04:56;17.70;99.90
3942;DHT22;1985;48.592;8.850;2023-07-29T04:07:22;17.80;99.90
3942;DHT22;1985;48.592;8.850;2023-07-29T04:09:48;17.90;99.90
3942;DHT22;1985;48.592;8.850;2023-07-29T04:12:14;17.90;99.90
3942;DHT22;1985;48.592;8.850;2023-07-29T04:14:40;18.00;99.90
3942;DHT22;1985;48.592;8.850;2023-07-29T04:17:07;18.00;99.90
3942;DHT22;1985;48.592;8.850;2023-07-29T04:19:33;18.00;99.90
3942;DHT22;1985;48.592;8.850;2023-07-29T04:21:58;18.00;99.90
3942;DHT22;1985;48.592;8.850;2023-07-29T04:24:24;18.10;99.90
3942;DHT22;1985;48.592;8.850;2023-07-29T04:26:50;18.20;99.90
3942;DHT22;1985;48.592;8.850;2023-07-29T04:29:16;18.10;99.90
3942;DHT22;1985;48.592;8.850;2023-07-29T04:31:42;18.00;99.90
3942;DHT22;1985;48.592;8.850;2023-07-29T04:34:08;18.00;99.90
3942;DHT22;1985;48.592;8.850;2023-07-29T04:36:33;18.10;99.90
3942;DHT22;1985;48.592;8.850;2023-07-29T04:38:59;18.10;99.90
3942;DHT22;1985;48.592;8.850;2023-07-29T04:41:24;17.90;99.90
3942;DHT22;1985;48.592;8.850;2023-07-29T04:43:50;17.70;99.90
3942;DHT22;1985;48.592;8.850;2023-07-29T04:46:16;17.60;99.90
3942;DHT22;1985;48.592;8.850;2023-07-29T04:48:41;17.70;99.90
3942;DHT22;1985;48.592;8.850;2023-07-29T04:51:07;17.80;99.90
3942;DHT22;1985;48.592;8.850;2023-07-29T04:53:32;17.80;99.90
3942;DHT22;1985;48.592;8.850;2023-07-29T04:56:00;17.80;99.90
3942;DHT22;1985;48.592;8.850;2023-07-29T04:58:26;17.70;99.90
3942;DHT22;1985;48.592;8.850;2023-07-29T05:00:54;17.70;99.90
3942;DHT22;1985;48.592;8.850;2023-07-29T05:03:19;17.80;99.90
3942;DHT22;1985;48.592;8.850;2023-07-29T05:05:45;17.80;99.90
3942;DHT22;1985;48.592;8.850;2023-07-29T05:08:11;17.80;99.90
3942;DHT22;1985;48.592;8.850;2023-07-29T05:10:36;17.90;99.90
3942;DHT22;1985;48.592;8.850;2023-07-29T05:13:02;18.00;99.90
3942;DHT22;1985;48.592;8.850;2023-07-29T05:15:27;18.10;99.90
3942;DHT22;1985;48.592;8.850;2023-07-29T05:17:53;18.10;99.90
3942;DHT22;1985;48.592;8.850;2023-07-29T05:20:19;18.00;99.90
3942;DHT22;1985;48.592;8.850;2023-07-29T05:22:44;18.00;99.90
3942;DHT22;1985;48.592;8.850;2023-07-29T05:25:10;18.00;99.90
3942;DHT22;1985;48.592;8.850;2023-07-29T05:27:40;17.80;99.90
3942;DHT22;1985;48.592;8.850;2023-07-29T05:30:06;17.60;99.90
3942;DHT22;1985;48.592;8.850;2023-07-29T05:32:32;17.70;99.90
3942;DHT22;1985;48.592;8.850;2023-07-29T05:34:58;17.80;99.90
3942;DHT22;1985;48.592;8.850;2023-07-29T05:37:24;17.80;99.90
3942;DHT22;1985;48.592;8.850;2023-07-29T05:39:49;17.90;99.90
3942;DHT22;1985;48.592;8.850;2023-07-29T05:42:15;17.80;99.90
3942;DHT22;1985;48.592;8.850;2023-07-29T05:44:40;17.80;99.90
3942;DHT22;1985;48.592;8.850;2023-07-29T05:47:06;18.00;99.90
3942;DHT22;1985;48.592;8.850;2023-07-29T05:49:31;18.10;99.90
3942;DHT22;1985;48.592;8.850;2023-07-29T05:51:57;18.20;99.90
3942;DHT22;1985;48.592;8.850;2023-07-29T05:54:23;18.30;99.90
3942;DHT22;1985;48.592;8.850;2023-07-29T05:56:49;18.30;99.90
3942;DHT22;1985;48.592;8.850;2023-07-29T05:59:14;18.40;99.90
3942;DHT22;1985;48.592;8.850;2023-07-29T06:01:40;18.50;99.90
3942;DHT22;1985;48.592;8.850;2023-07-29T06:04:05;18.60;99.90
3942;DHT22;1985;48.592;8.850;2023-07-29T06:06:31;18.70;99.90
3942;DHT22;1985;48.592;8.850;2023-07-29T06:08:56;18.70;99.90
3942;DHT22;1985;48.592;8.850;2023-07-29T06:11:23;18.80;99.90
3942;DHT22;1985;48.592;8.850;2023-07-29T06:13:49;18.80;99.90
3942;DHT22;1985;48.592;8.850;2023-07-29T06:16:14;18.80;99.90
3942;DHT22;1985;48.592;8.850;2023-07-29T06:18:40;18.80;99.90
3942;DHT22;1985;48.592;8.850;2023-07-29T06:21:05;18.90;99.90
3942;DHT22;1985;48.592;8.850;2023-07-29T06:23:33;18.90;99.90
3942;DHT22;1985;48.592;8.850;2023-07-29T06:25:59;19.00;99.90
3942;DHT22;1985;48.592;8.850;2023-07-29T06:28:26;19.00;99.90
3942;DHT22;1985;48.592;8.850;2023-07-29T06:30:52;19.00;99.90
3942;DHT22;1985;48.592;8.850;2023-07-29T06:33:18;19.00;99.90
3942;DHT22;1985;48.592;8.850;2023-07-29T06:35:43;18.90;99.90
3942;DHT22;1985;48.592;8.850;2023-07-29T06:38:09;18.50;99.90
3942;DHT22;1985;48.592;8.850;2023-07-29T06:40:35;18.30;99.90
3942;DHT22;1985;48.592;8.850;2023-07-29T06:43:00;18.10;99.90
3942;DHT22;1985;48.592;8.850;2023-07-29T06:45:26;17.90;99.90
3942;DHT22;1985;48.592;8.850;2023-07-29T06:47:52;17.80;99.90
3942;DHT22;1985;48.592;8.850;2023-07-29T06:50:17;17.60;99.90
3942;DHT22;1985;48.592;8.850;2023-07-29T06:52:43;17.60;99.90
3942;DHT22;1985;48.592;8.850;2023-07-29T06:55:09;17.70;99.90
3942;DHT22;1985;48.592;8.850;2023-07-29T06:57:34;17.70;99.90
3942;DHT22;1985;48.592;8.850;2023-07-29T07:00:00;17.60;99.90
3942;DHT22;1985;48.592;8.850;2023-07-29T07:02:26;17.60;99.90
3942;DHT22;1985;48.592;8.850;2023-07-29T07:04:51;17.50;99.90
3942;DHT22;1985;48.592;8.850;2023-07-29T07:07:17;17.60;99.90
3942;DHT22;1985;48.592;8.850;2023-07-29T07:09:42;17.70;99.90
3942;DHT22;1985;48.592;8.850;2023-07-29T07:12:08;17.80;99.90
3942;DHT22;1985;48.592;8.850;2023-07-29T07:14:34;17.90;99.90
3942;DHT22;1985;48.592;8.850;2023-07-29T07:16:59;17.90;99.90
3942;DHT22;1985;48.592;8.850;2023-07-29T07:19:25;18.00;99.90
3942;DHT22;1985;48.592;8.850;2023-07-29T07:21:51;18.10;99.90
3942;DHT22;1985;48.592;8.850;2023-07-29T07:24:16;18.20;99.90
3942;DHT22;1985;48.592;8.850;2023-07-29T07:26:42;18.30;99.90
3942;DHT22;1985;48.592;8.850;2023-07-29T07:29:07;18.50;99.90
3942;DHT22;1985;48.592;8.850;2023-07-29T07:31:33;18.60;99.90
3942;DHT22;1985;48.592;8.850;2023-07-29T07:33:59;18.60;99.90
3942;DHT22;1985;48.592;8.850;2023-07-29T07:36:27;18.70;99.90
3942;DHT22;1985;48.592;8.850;2023-07-29T07:38:53;18.80;99.90
3942;DHT22;1985;48.592;8.850;2023-07-29T07:41:18;18.90;99.90
3942;DHT22;1985;48.592;8.850;2023-07-29T07:43:44;19.00;99.90
3942;DHT22;1985;48.592;8.850;2023-07-29T07:46:09;19.00;99.90
3942;DHT22;1985;48.592;8.850;2023-07-29T07:48:35;19.00;99.90
3942;DHT22;1985;48.592;8.850;2023-07-29T07:51:09;19.00;99.90
3942;DHT22;1985;48.592;8.850;2023-07-29T07:53:34;19.10;99.90
3942;DHT22;1985;48.592;8.850;2023-07-29T07:56:00;19.20;99.90
3942;DHT22;1985;48.592;8.850;2023-07-29T07:58:25;19.30;99.90
3942;DHT22;1985;48.592;8.850;2023-07-29T08:00:51;19.30;99.90
3942;DHT22;1985;48.592;8.850;2023-07-29T08:03:17;19.30;99.90
3942;DHT22;1985;48.592;8.850;2023-07-29T08:05:43;19.30;99.90
3942;DHT22;1985;48.592;8.850;2023-07-29T08:08:09;19.20;99.90
3942;DHT22;1985;48.592;8.850;2023-07-29T08:10:34;19.20;99.90
3942;DHT22;1985;48.592;8.850;2023-07-29T08:13:00;19.10;99.90
3942;DHT22;1985;48.592;8.850;2023-07-29T08:15:25;19.20;99.90
3942;DHT22;1985;48.592;8.850;2023-07-29T08:17:51;19.20;99.90
3942;DHT22;1985;48.592;8.850;2023-07-29T08:20:17;19.40;99.90
3942;DHT22;1985;48.592;8.850;2023-07-29T08:22:42;19.70;99.90
3942;DHT22;1985;48.592;8.850;2023-07-29T08:25:08;19.90;99.90
3942;DHT22;1985;48.592;8.850;2023-07-29T08:27:34;19.90;99.90
3942;DHT22;1985;48.592;8.850;2023-07-29T08:30:00;20.10;99.90
3942;DHT22;1985;48.592;8.850;2023-07-29T08:32:25;20.20;99.90
3942;DHT22;1985;48.592;8.850;2023-07-29T08:34:51;20.30;99.90
3942;DHT22;1985;48.592;8.850;2023-07-29T08:37:16;20.40;99.90
3942;DHT22;1985;48.592;8.850;2023-07-29T08:39:42;20.60;99.90
3942;DHT22;1985;48.592;8.850;2023-07-29T08:42:08;20.80;99.90
3942;DHT22;1985;48.592;8.850;2023-07-29T08:44:41;20.90;99.90
3942;DHT22;1985;48.592;8.850;2023-07-29T08:47:08;21.00;99.90
3942;DHT22;1985;48.592;8.850;2023-07-29T08:49:34;20.90;99.90
3942;DHT22;1985;48.592;8.850;2023-07-29T08:52:01;20.90;99.90
3942;DHT22;1985;48.592;8.850;2023-07-29T08:54:27;21.00;99.90
3942;DHT22;1985;48.592;8.850;2023-07-29T08:56:52;20.90;99.90
3942;DHT22;1985;48.592;8.850;2023-07-29T08:59:19;20.90;99.90
3942;DHT22;1985;48.592;8.850;2023-07-29T09:01:45;21.00;99.90
3942;DHT22;1985;48.592;8.850;2023-07-29T09:04:12;21.10;99.90
3942;DHT22;1985;48.592;8.850;2023-07-29T09:06:39;21.20;99.90
3942;DHT22;1985;48.592;8.850;2023-07-29T09:09:05;21.30;99.90
3942;DHT22;1985;48.592;8.850;2023-07-29T09:11:33;21.50;99.90
3942;DHT22;1985;48.592;8.850;2023-07-29T09:13:58;21.50;99.90
3942;DHT22;1985;48.592;8.850;2023-07-29T09:16:24;21.60;99.90
3942;DHT22;1985;48.592;8.850;2023-07-29T09:18:51;21.70;99.90
3942;DHT22;1985;48.592;8.850;2023-07-29T09:21:24;21.80;99.90
3942;DHT22;1985;48.592;8.850;2023-07-29T09:23:54;21.80;99.90
3942;DHT22;1985;48.592;8.850;2023-07-29T09:26:27;21.90;99.90
3942;DHT22;1985;48.592;8.850;2023-07-29T09:28:55;22.10;99.90
3942;DHT22;1985;48.592;8.850;2023-07-29T09:31:26;22.20;99.90
3942;DHT22;1985;48.592;8.850;2023-07-29T09:33:59;22.20;99.90
3942;DHT22;1985;48.592;8.850;2023-07-29T09:36:26;21.90;99.90
3942;DHT22;1985;48.592;8.850;2023-07-29T09:38:53;21.80;99.90
3942;DHT22;1985;48.592;8.850;2023-07-29T09:41:19;21.90;99.90
3942;DHT22;1985;48.592;8.850;2023-07-29T09:43:47;22.00;99.90
3942;DHT22;1985;48.592;8.850;2023-07-29T09:46:12;22.20;99.90
3942;DHT22;1985;48.592;8.850;2023-07-29T09:48:38;22.40;99.90
3942;DHT22;1985;48.592;8.850;2023-07-29T09:51:14;22.40;99.90
3942;DHT22;1985;48.592;8.850;2023-07-29T09:53:44;22.60;99.90
3942;DHT22;1985;48.592;8.850;2023-07-29T09:56:10;22.90;99.90
3942;DHT22;1985;48.592;8.850;2023-07-29T09:58:38;23.00;99.90
3942;DHT22;1985;48.592;8.850;2023-07-29T10:01:06;23.20;99.90
3942;DHT22;1985;48.592;8.850;2023-07-29T10:03:33;23.20;99.90
3942;DHT22;1985;48.592;8.850;2023-07-29T10:06:03;23.20;99.90
3942;DHT22;1985;48.592;8.850;2023-07-29T10:08:30;23.00;99.90
3942;DHT22;1985;48.592;8.850;2023-07-29T10:10:59;22.80;99.90
3942;DHT22;1985;48.592;8.850;2023-07-29T10:13:26;22.80;99.90
3942;DHT22;1985;48.592;8.850;2023-07-29T10:15:53;23.00;99.90
3942;DHT22;1985;48.592;8.850;2023-07-29T10:18:20;23.40;99.90
3942;DHT22;1985;48.592;8.850;2023-07-29T10:20:49;23.70;99.90
3942;DHT22;1985;48.592;8.850;2023-07-29T10:23:17;24.30;99.90
3942;DHT22;1985;48.592;8.850;2023-07-29T10:25:47;24.50;99.90
3942;DHT22;1985;48.592;8.850;2023-07-29T10:28:15;24.10;99.90
3942;DHT22;1985;48.592;8.850;2023-07-29T10:30:42;23.60;99.90
3942;DHT22;1985;48.592;8.850;2023-07-29T10:33:08;23.20;99.90
3942;DHT22;1985;48.592;8.850;2023-07-29T10:35:36;23.20;99.90
3942;DHT22;1985;48.592;8.850;2023-07-29T10:38:03;23.10;99.90
3942;DHT22;1985;48.592;8.850;2023-07-29T10:40:47;23.30;99.90
3942;DHT22;1985;48.592;8.850;2023-07-29T10:45:55;23.40;99.90
3942;DHT22;1985;48.592;8.850;2023-07-29T10:53:56;23.80;99.90
3942;DHT22;1985;48.592;8.850;2023-07-29T10:56:30;23.90;99.90
3942;DHT22;1985;48.592;8.850;2023-07-29T10:59:53;23.90;99.90
3942;DHT22;1985;48.592;8.850;2023-07-29T11:02:00;24.10;99.90
3942;DHT22;1985;48.592;8.850;2023-07-29T11:04:30;24.00;99.90
3942;DHT22;1985;48.592;8.850;2023-07-29T11:09:51;23.60;99.90
3942;DHT22;1985;48.592;8.850;2023-07-29T11:12:46;23.70;99.90
3942;DHT22;1985;48.592;8.850;2023-07-29T11:15:19;23.70;99.90
3942;DHT22;1985;48.592;8.850;2023-07-29T11:17:54;23.80;99.90
3942;DHT22;1985;48.592;8.850;2023-07-29T11:20:22;24.10;99.90
3942;DHT22;1985;48.592;8.850;2023-07-29T11:22:48;24.50;99.90
3942;DHT22;1985;48.592;8.850;2023-07-29T11:25:16;24.80;99.90
3942;DHT22;1985;48.592;8.850;2023-07-29T11:27:42;24.70;99.90
3942;DHT22;1985;48.592;8.850;2023-07-29T11:30:10;24.70;99.90
3942;DHT22;1985;48.592;8.850;2023-07-29T11:32:36;24.50;99.90
3942;DHT22;1985;48.592;8.850;2023-07-29T11:37:29;24.50;99.90
3942;DHT22;1985;48.592;8.850;2023-07-29T11:39:55;24.60;99.90
3942;DHT22;1985;48.592;8.850;2023-07-29T11:42:21;24.80;99.90
3942;DHT22;1985;48.592;8.850;2023-07-29T11:44:46;24.80;99.90
3942;DHT22;1985;48.592;8.850;2023-07-29T11:47:13;24.70;99.90
3942;DHT22;1985;48.592;8.850;2023-07-29T11:49:40;24.90;99.90
3942;DHT22;1985;48.592;8.850;2023-07-29T11:52:10;25.10;99.90
3942;DHT22;1985;48.592;8.850;2023-07-29T11:54:36;25.00;99.90
3942;DHT22;1985;48.592;8.850;2023-07-29T11:57:07;25.20;99.90
3942;DHT22;1985;48.592;8.850;2023-07-29T11:59:37;25.30;99.90
3942;DHT22;1985;48.592;8.850;2023-07-29T12:02:10;25.10;99.90
3942;DHT22;1985;48.592;8.850;2023-07-29T12:04:37;25.50;99.90
3942;DHT22;1985;48.592;8.850;2023-07-29T12:07:03;25.30;99.90
3942;DHT22;1985;48.592;8.850;2023-07-29T12:09:29;25.10;99.10
3942;DHT22;1985;48.592;8.850;2023-07-29T12:11:56;25.10;98.70
3942;DHT22;1985;48.592;8.850;2023-07-29T12:14:21;25.40;98.90
3942;DHT22;1985;48.592;8.850;2023-07-29T12:16:51;25.50;97.80
3942;DHT22;1985;48.592;8.850;2023-07-29T12:19:17;25.50;97.50
3942;DHT22;1985;48.592;8.850;2023-07-29T12:21:44;25.70;96.80
3942;DHT22;1985;48.592;8.850;2023-07-29T12:24:11;25.60;95.40
3942;DHT22;1985;48.592;8.850;2023-07-29T12:26:37;25.80;96.40
3942;DHT22;1985;48.592;8.850;2023-07-29T12:29:14;26.20;96.10
3942;DHT22;1985;48.592;8.850;2023-07-29T12:31:40;26.00;93.30
3942;DHT22;1985;48.592;8.850;2023-07-29T12:34:05;25.60;93.30
3942;DHT22;1985;48.592;8.850;2023-07-29T12:36:45;25.50;93.50
3942;DHT22;1985;48.592;8.850;2023-07-29T12:39:21;25.40;94.10
3942;DHT22;1985;48.592;8.850;2023-07-29T12:41:48;25.10;92.80
3942;DHT22;1985;48.592;8.850;2023-07-29T12:44:14;25.10;94.50
3942;DHT22;1985;48.592;8.850;2023-07-29T12:46:40;25.00;94.40
3942;DHT22;1985;48.592;8.850;2023-07-29T12:49:06;24.90;95.30
3942;DHT22;1985;48.592;8.850;2023-07-29T12:51:32;24.90;95.70
3942;DHT22;1985;48.592;8.850;2023-07-29T12:53:58;24.80;95.70
3942;DHT22;1985;48.592;8.850;2023-07-29T12:56:24;24.90;96.70
3942;DHT22;1985;48.592;8.850;2023-07-29T12:58:49;25.00;95.80
3942;DHT22;1985;48.592;8.850;2023-07-29T13:01:15;25.00;96.10
3942;DHT22;1985;48.592;8.850;2023-07-29T13:03:47;24.90;94.70
3942;DHT22;1985;48.592;8.850;2023-07-29T13:06:13;24.70;94.80
3942;DHT22;1985;48.592;8.850;2023-07-29T13:08:39;24.90;93.70
3942;DHT22;1985;48.592;8.850;2023-07-29T13:11:04;25.00;93.30
3942;DHT22;1985;48.592;8.850;2023-07-29T13:13:30;25.10;92.40
3942;DHT22;1985;48.592;8.850;2023-07-29T13:15:57;25.00;93.50
3942;DHT22;1985;48.592;8.850;2023-07-29T13:18:22;25.10;94.10
3942;DHT22;1985;48.592;8.850;2023-07-29T13:20:48;24.90;93.30
3942;DHT22;1985;48.592;8.850;2023-07-29T13:23:15;24.90;91.90
3942;DHT22;1985;48.592;8.850;2023-07-29T13:25:41;25.00;91.70
3942;DHT22;1985;48.592;8.850;2023-07-29T13:28:07;25.00;92.20
3942;DHT22;1985;48.592;8.850;2023-07-29T13:30:33;25.00;92.60
3942;DHT22;1985;48.592;8.850;2023-07-29T13:32:58;25.10;92.30
3942;DHT22;1985;48.592;8.850;2023-07-29T13:35:24;25.10;93.00
3942;DHT22;1985;48.592;8.850;2023-07-29T13:37:50;24.90;92.30
3942;DHT22;1985;48.592;8.850;2023-07-29T13:40:15;24.90;92.40
3942;DHT22;1985;48.592;8.850;2023-07-29T13:42:41;24.90;92.80
3942;DHT22;1985;48.592;8.850;2023-07-29T13:45:07;24.80;92.80
3942;DHT22;1985;48.592;8.850;2023-07-29T13:47:33;24.80;93.50
3942;DHT22;1985;48.592;8.850;2023-07-29T13:49:59;24.80;94.00
3942;DHT22;1985;48.592;8.850;2023-07-29T13:52:25;24.70;93.10
3942;DHT22;1985;48.592;8.850;2023-07-29T13:54:51;24.50;93.00
3942;DHT22;1985;48.592;8.850;2023-07-29T13:57:16;24.60;93.80
3942;DHT22;1985;48.592;8.850;2023-07-29T13:59:42;24.70;92.90
3942;DHT22;1985;48.592;8.850;2023-07-29T14:02:08;24.60;93.70
3942;DHT22;1985;48.592;8.850;2023-07-29T14:04:34;24.70;93.10
3942;DHT22;1985;48.592;8.850;2023-07-29T14:07:00;24.70;92.10
3942;DHT22;1985;48.592;8.850;2023-07-29T14:09:26;24.70;93.00
3942;DHT22;1985;48.592;8.850;2023-07-29T14:11:53;24.70;93.60
3942;DHT22;1985;48.592;8.850;2023-07-29T14:14:19;24.60;92.50
3942;DHT22;1985;48.592;8.850;2023-07-29T14:16:44;24.60;92.50
3942;DHT22;1985;48.592;8.850;2023-07-29T14:19:10;24.50;92.50
3942;DHT22;1985;48.592;8.850;2023-07-29T14:21:35;24.50;92.50
3942;DHT22;1985;48.592;8.850;2023-07-29T14:24:01;24.70;93.30
3942;DHT22;1985;48.592;8.850;2023-07-29T14:26:27;25.00;92.70
3942;DHT22;1985;48.592;8.850;2023-07-29T14:28:52;25.00;91.50
3942;DHT22;1985;48.592;8.850;2023-07-29T14:31:18;24.90;92.10
3942;DHT22;1985;48.592;8.850;2023-07-29T14:33:44;24.60;92.20
3942;DHT22;1985;48.592;8.850;2023-07-29T14:36:10;24.60;92.50
3942;DHT22;1985;48.592;8.850;2023-07-29T14:38:36;24.60;93.40
3942;DHT22;1985;48.592;8.850;2023-07-29T14:41:02;24.60;93.50
3942;DHT22;1985;48.592;8.850;2023-07-29T14:43:28;24.60;93.10
3942;DHT22;1985;48.592;8.850;2023-07-29T14:45:53;24.70;93.80
3942;DHT22;1985;48.592;8.850;2023-07-29T14:48:19;24.90;93.90
3942;DHT22;1985;48.592;8.850;2023-07-29T14:50:45;25.00;92.60
3942;DHT22;1985;48.592;8.850;2023-07-29T14:53:10;24.90;92.80
3942;DHT22;1985;48.592;8.850;2023-07-29T14:55:37;24.70;92.90
3942;DHT22;1985;48.592;8.850;2023-07-29T14:58:03;24.60;93.00
3942;DHT22;1985;48.592;8.850;2023-07-29T15:00:28;24.50;93.60
3942;DHT22;1985;48.592;8.850;2023-07-29T15:02:54;24.30;93.90
3942;DHT22;1985;48.592;8.850;2023-07-29T15:05:20;24.20;94.00
3942;DHT22;1985;48.592;8.850;2023-07-29T15:07:46;24.30;94.00
3942;DHT22;1985;48.592;8.850;2023-07-29T15:10:14;24.40;94.30
3942;DHT22;1985;48.592;8.850;2023-07-29T15:12:40;24.50;94.00
3942;DHT22;1985;48.592;8.850;2023-07-29T15:15:06;24.50;93.70
3942;DHT22;1985;48.592;8.850;2023-07-29T15:17:32;24.30;94.00
3942;DHT22;1985;48.592;8.850;2023-07-29T15:19:57;24.20;94.30
3942;DHT22;1985;48.592;8.850;2023-07-29T15:22:23;24.10;94.10
3942;DHT22;1985;48.592;8.850;2023-07-29T15:24:48;24.10;93.80
3942;DHT22;1985;48.592;8.850;2023-07-29T15:27:14;24.00;94.30
3942;DHT22;1985;48.592;8.850;2023-07-29T15:29:39;24.10;94.50
3942;DHT22;1985;48.592;8.850;2023-07-29T15:32:06;24.20;94.50
3942;DHT22;1985;48.592;8.850;2023-07-29T15:34:31;24.20;94.20
3942;DHT22;1985;48.592;8.850;2023-07-29T15:36:58;24.30;94.20
3942;DHT22;1985;48.592;8.850;2023-07-29T15:39:24;24.40;94.30
3942;DHT22;1985;48.592;8.850;2023-07-29T15:41:50;24.50;94.30
3942;DHT22;1985;48.592;8.850;2023-07-29T15:44:16;24.40;93.90
3942;DHT22;1985;48.592;8.850;2023-07-29T15:46:42;24.40;94.60
3942;DHT22;1985;48.592;8.850;2023-07-29T15:49:08;24.50;94.30
3942;DHT22;1985;48.592;8.850;2023-07-29T15:51:35;24.50;94.40
3942;DHT22;1985;48.592;8.850;2023-07-29T15:54:00;24.50;94.80
3942;DHT22;1985;48.592;8.850;2023-07-29T15:56:29;24.30;94.20
3942;DHT22;1985;48.592;8.850;2023-07-29T15:58:56;24.20;94.60
3942;DHT22;1985;48.592;8.850;2023-07-29T16:01:24;24.20;94.80
3942;DHT22;1985;48.592;8.850;2023-07-29T16:03:50;24.20;95.00
3942;DHT22;1985;48.592;8.850;2023-07-29T16:06:16;24.40;95.80
3942;DHT22;1985;48.592;8.850;2023-07-29T16:08:41;24.40;95.00
3942;DHT22;1985;48.592;8.850;2023-07-29T16:11:07;24.50;95.10
3942;DHT22;1985;48.592;8.850;2023-07-29T16:13:33;24.70;95.20
3942;DHT22;1985;48.592;8.850;2023-07-29T16:15:58;24.70;94.60
3942;DHT22;1985;48.592;8.850;2023-07-29T16:18:24;24.70;94.40
3942;DHT22;1985;48.592;8.850;2023-07-29T16:20:50;24.70;95.00